Time;durP1;ratioP1;P1;durP2;ratioP2;P2;SDS_P1;SDS_P2;PMS_P1;PMS_P2;Temp;Humidity;BMP_temperature;BMP_pressure;BME280_temperature;BME280_humidity;BME280_pressure;Samples;Min_cycle;Max_cycle;Signal;HPM_P1;HPM_P2
2024/03/02 00:01:39;;;;;;;26.80;21.98;;;;;;;;;;10056752;28;20498;-86
2024/03/02 00:06:35;;;;;;;29.67;23.83;;;;;;;;;;10058480;28;20413;-88
2024/03/02 00:11:29;;;;;;;30.58;22.48;;;;;;;;;;10063687;28;20037;-89
2024/03/02 00:16:24;;;;;;;27.70;23.42;;;;;;;;;;10058262;28;20128;-90
2024/03/02 00:21:21;;;;;;;27.23;24.10;;;;;;;;;;10041941;28;20061;-86
2024/03/02 00:26:16;;;;;;;29.08;24.40;;;;;;;;;;10051735;28;20049;-91
2024/03/02 00:31:13;;;;;;;33.50;25.85;;;;;;;;;;10064544;28;20111;-85
2024/03/02 00:36:08;;;;;;;53.22;30.27;;;;;;;;;;10068493;28;20061;-88
2024/03/02 00:41:09;;;;;;;35.33;23.70;;;;;;;;;;10061822;28;20111;-84
2024/03/02 00:46:03;;;;;;;34.83;26.27;;;;;;;;;;10054072;28;20088;-89
2024/03/02 00:50:57;;;;;;;44.45;27.90;;;;;;;;;;10051253;28;20057;-86
2024/03/02 00:55:51;;;;;;;52.03;28.65;;;;;;;;;;10056434;28;20038;-87
2024/03/02 01:00:46;;;;;;;46.88;28.05;;;;;;;;;;10049840;28;20063;-86
2024/03/02 01:06:00;;;;;;;44.72;27.38;;;;;;;;;;10047412;28;20054;-86
2024/03/02 01:10:54;;;;;;;29.48;26.30;;;;;;;;;;10054939;28;20128;-87
2024/03/02 01:15:49;;;;;;;30.35;24.65;;;;;;;;;;10072554;28;20167;-89
2024/03/02 01:20:43;;;;;;;28.90;24.35;;;;;;;;;;10081705;28;20115;-86
2024/03/02 01:25:38;;;;;;;37.58;29.45;;;;;;;;;;10073077;28;20064;-87
2024/03/02 01:30:32;;;;;;;35.13;28.30;;;;;;;;;;10052368;28;20054;-87
2024/03/02 01:35:26;;;;;;;33.42;24.75;;;;;;;;;;10065163;28;20054;-87
2024/03/02 01:40:20;;;;;;;36.75;26.27;;;;;;;;;;10046765;28;20057;-86
2024/03/02 01:45:14;;;;;;;31.17;26.10;;;;;;;;;;10051029;28;20092;-87
2024/03/02 01:50:11;;;;;;;41.95;29.35;;;;;;;;;;10060386;28;20081;-89
2024/03/02 01:55:08;;;;;;;42.78;27.52;;;;;;;;;;10069972;28;20072;-89
2024/03/02 02:00:05;;;;;;;43.35;25.77;;;;;;;;;;10060292;28;20060;-88
2024/03/02 02:05:03;;;;;;;42.95;28.60;;;;;;;;;;10070094;28;20065;-88
2024/03/02 02:09:58;;;;;;;45.15;28.45;;;;;;;;;;10061454;28;20498;-87
2024/03/02 02:14:53;;;;;;;46.25;27.33;;;;;;;;;;10068897;28;20057;-88
2024/03/02 02:19:47;;;;;;;47.78;28.65;;;;;;;;;;10065602;28;20105;-88
2024/03/02 02:24:42;;;;;;;36.60;24.58;;;;;;;;;;10063591;28;20045;-87
2024/03/02 02:29:36;;;;;;;34.15;22.52;;;;;;;;;;10059363;28;20124;-87
2024/03/02 02:34:31;;;;;;;36.67;22.80;;;;;;;;;;10057738;28;20128;-88
2024/03/02 02:39:25;;;;;;;45.83;25.30;;;;;;;;;;10063041;28;20053;-87
2024/03/02 02:44:20;;;;;;;28.30;19.50;;;;;;;;;;10058351;28;20432;-87
2024/03/02 02:49:14;;;;;;;37.63;23.60;;;;;;;;;;10062909;28;20168;-89
2024/03/02 02:54:08;;;;;;;32.28;20.85;;;;;;;;;;10065360;28;20045;-89
2024/03/02 02:59:03;;;;;;;31.42;22.25;;;;;;;;;;10053344;28;20132;-90
2024/03/02 03:03:57;;;;;;;44.35;24.23;;;;;;;;;;10057770;28;20465;-87
2024/03/02 03:08:51;;;;;;;31.33;22.88;;;;;;;;;;10067234;28;20091;-87
2024/03/02 03:13:46;;;;;;;31.92;20.85;;;;;;;;;;10067159;28;20054;-89
2024/03/02 03:18:40;;;;;;;44.53;25.13;;;;;;;;;;10056310;28;20072;-87
2024/03/02 03:23:35;;;;;;;31.92;25.90;;;;;;;;;;10055220;28;20057;-89
2024/03/02 03:28:29;;;;;;;32.40;23.13;;;;;;;;;;10066331;28;20045;-89
2024/03/02 03:33:24;;;;;;;44.03;29.48;;;;;;;;;;10064902;28;20124;-89
2024/03/02 03:38:19;;;;;;;31.00;23.98;;;;;;;;;;10062635;28;20057;-89
2024/03/02 03:43:13;;;;;;;44.83;24.98;;;;;;;;;;10058376;28;20091;-89
2024/03/02 03:48:07;;;;;;;36.35;24.67;;;;;;;;;;10055517;28;20053;-87
2024/03/02 03:53:02;;;;;;;36.60;22.65;;;;;;;;;;10062268;28;20088;-89
2024/03/02 03:57:57;;;;;;;44.83;31.50;;;;;;;;;;10054815;28;20072;-85
2024/03/02 04:02:51;;;;;;;28.42;20.00;;;;;;;;;;10059164;28;20144;-85
2024/03/02 04:07:46;;;;;;;28.15;20.30;;;;;;;;;;10054643;28;20060;-84
2024/03/02 04:12:40;;;;;;;36.28;21.55;;;;;;;;;;10052113;28;20059;-85
2024/03/02 04:17:35;;;;;;;32.75;20.33;;;;;;;;;;10062424;28;20077;-84
2024/03/02 04:22:30;;;;;;;29.20;20.55;;;;;;;;;;10053076;28;20050;-85
2024/03/02 04:27:24;;;;;;;33.13;22.35;;;;;;;;;;10060082;28;20080;-86
2024/03/02 04:32:19;;;;;;;31.33;21.75;;;;;;;;;;10060944;28;20053;-85
2024/03/02 04:37:17;;;;;;;40.60;25.73;;;;;;;;;;10053812;28;20484;-87
2024/03/02 04:42:11;;;;;;;41.10;26.25;;;;;;;;;;10057618;28;20050;-87
2024/03/02 04:47:05;;;;;;;38.75;24.40;;;;;;;;;;10061084;28;20075;-87
2024/03/02 04:51:58;;;;;;;46.35;25.45;;;;;;;;;;10047785;28;20492;-85
2024/03/02 04:56:53;;;;;;;57.38;29.98;;;;;;;;;;10058866;28;20513;-87
2024/03/02 05:01:47;;;;;;;39.67;26.33;;;;;;;;;;10046790;28;20463;-88
2024/03/02 05:06:42;;;;;;;56.30;30.17;;;;;;;;;;10044879;28;20053;-87
2024/03/02 05:11:53;;;;;;;42.67;27.58;;;;;;;;;;10058946;28;20053;-88
2024/03/02 05:16:50;;;;;;;72.78;30.13;;;;;;;;;;10047884;28;20092;-86
2024/03/02 05:21:45;;;;;;;46.58;25.73;;;;;;;;;;10060905;28;20410;-86
2024/03/02 05:26:39;;;;;;;39.75;23.30;;;;;;;;;;10061971;28;20099;-86
2024/03/02 05:31:34;;;;;;;50.38;22.52;;;;;;;;;;10065132;28;20497;-86
2024/03/02 05:36:28;;;;;;;29.40;20.58;;;;;;;;;;10063917;28;20081;-88
2024/03/02 05:41:23;;;;;;;57.03;24.00;;;;;;;;;;10055885;28;20055;-86
2024/03/02 05:46:17;;;;;;;46.35;24.27;;;;;;;;;;10055032;28;20053;-83
2024/03/02 05:51:11;;;;;;;36.80;21.65;;;;;;;;;;10048435;28;20058;-83
2024/03/02 05:56:06;;;;;;;48.03;23.17;;;;;;;;;;10055074;28;20119;-86
2024/03/02 06:01:00;;;;;;;36.03;23.50;;;;;;;;;;10043153;28;20053;-85
2024/03/02 06:05:55;;;;;;;41.92;22.95;;;;;;;;;;10050728;28;20056;-81
2024/03/02 06:10:50;;;;;;;28.67;18.67;;;;;;;;;;10063104;28;20528;-80
2024/03/02 06:15:43;;;;;;;29.38;19.02;;;;;;;;;;10056255;28;20059;-81
2024/03/02 06:20:38;;;;;;;37.08;22.67;;;;;;;;;;10063535;28;20136;-80
2024/03/02 06:25:33;;;;;;;38.20;20.90;;;;;;;;;;10063396;28;20052;-80
2024/03/02 06:30:27;;;;;;;47.38;25.35;;;;;;;;;;10062826;28;20081;-82
2024/03/02 06:35:25;;;;;;;50.13;25.40;;;;;;;;;;10043832;28;20108;-84
2024/03/02 06:40:19;;;;;;;51.17;23.75;;;;;;;;;;10049212;28;20111;-81
2024/03/02 06:45:12;;;;;;;42.90;21.73;;;;;;;;;;10052208;28;20049;-80
2024/03/02 06:50:08;;;;;;;51.72;23.52;;;;;;;;;;10066904;28;20048;-81
2024/03/02 06:55:04;;;;;;;36.05;19.23;;;;;;;;;;10068170;28;20562;-81
2024/03/02 06:59:59;;;;;;;44.38;23.60;;;;;;;;;;10064603;28;20049;-82
2024/03/02 07:05:13;;;;;;;44.88;23.25;;;;;;;;;;10067675;28;20045;-81
2024/03/02 07:10:08;;;;;;;61.45;25.02;;;;;;;;;;10068424;28;20111;-81
2024/03/02 07:19:57;;;;;;;76.05;32.22;;;;;;;;;;10069871;28;20137;-82
2024/03/02 07:24:53;;;;;;;80.13;35.50;;;;;;;;;;10067079;28;20088;-82
2024/03/02 07:29:48;;;;;;;113.65;41.00;;;;;;;;;;10066106;28;20520;-82
2024/03/02 07:34:42;;;;;;;66.65;35.30;;;;;;;;;;10067292;28;20132;-82
2024/03/02 07:39:35;;;;;;;75.63;38.88;;;;;;;;;;10066659;28;20556;-82
2024/03/02 07:44:29;;;;;;;60.38;35.30;;;;;;;;;;10066402;28;20057;-82
2024/03/02 07:49:24;;;;;;;71.90;36.58;;;;;;;;;;10066753;28;20054;-84
2024/03/02 07:54:17;;;;;;;108.30;44.20;;;;;;;;;;10066256;28;20065;-82
2024/03/02 07:59:11;;;;;;;94.45;41.67;;;;;;;;;;10053607;28;20053;-82
2024/03/02 08:04:05;;;;;;;79.55;40.45;;;;;;;;;;10059158;28;20041;-80
2024/03/02 08:09:00;;;;;;;89.90;40.13;;;;;;;;;;10062967;28;20100;-81
2024/03/02 08:13:54;;;;;;;79.68;37.83;;;;;;;;;;10057238;28;20087;-80
2024/03/02 08:18:50;;;;;;;75.43;40.33;;;;;;;;;;10048083;28;21002;-79
2024/03/02 08:23:44;;;;;;;85.45;42.40;;;;;;;;;;10057148;28;20064;-81
2024/03/02 08:28:40;;;;;;;73.60;40.72;;;;;;;;;;10059092;28;20057;-80
2024/03/02 08:33:36;;;;;;;;;;;;;;;;;;10047563;28;20064;-81
2024/03/02 08:38:31;;;;;;;94.15;46.45;;;;;;;;;;10049503;28;19929;-83
2024/03/02 08:43:25;;;;;;;69.88;41.30;;;;;;;;;;10047057;28;20534;-80
2024/03/02 08:48:19;;;;;;;83.88;41.92;;;;;;;;;;10051541;28;20523;-84
2024/03/02 08:53:18;;;;;;;110.90;42.70;;;;;;;;;;10050472;28;20073;-83
2024/03/02 08:58:12;;;;;;;57.22;37.70;;;;;;;;;;10047023;28;20103;-81
2024/03/02 09:03:05;;;;;;;46.92;30.35;;;;;;;;;;10041962;28;20057;-82
2024/03/02 09:08:00;;;;;;;39.00;25.65;;;;;;;;;;10049632;28;20834;-82
2024/03/02 09:12:55;;;;;;;52.95;31.67;;;;;;;;;;10051028;28;20488;-83
2024/03/02 09:17:49;;;;;;;47.25;33.65;;;;;;;;;;10046328;28;20186;-80
2024/03/02 09:22:43;;;;;;;44.05;31.92;;;;;;;;;;10047109;28;20119;-84
2024/03/02 09:27:38;;;;;;;33.63;24.90;;;;;;;;;;10048121;28;20050;-80
2024/03/02 09:32:33;;;;;;;35.45;27.48;;;;;;;;;;10059799;28;20485;-82
2024/03/02 09:37:26;;;;;;;44.33;33.03;;;;;;;;;;10063988;28;20068;-79
2024/03/02 09:42:20;;;;;;;50.15;36.90;;;;;;;;;;10058225;28;20099;-83
2024/03/02 09:47:17;;;;;;;45.80;34.92;;;;;;;;;;10064805;28;20136;-88
2024/03/02 09:52:11;;;;;;;52.35;36.05;;;;;;;;;;10064106;28;20049;-84
2024/03/02 09:57:05;;;;;;;41.13;31.70;;;;;;;;;;10063362;28;20088;-82
2024/03/02 10:02:00;;;;;;;44.08;32.78;;;;;;;;;;10047069;28;20061;-83
2024/03/02 10:07:16;;;;;;;43.83;33.83;;;;;;;;;;10056631;28;20089;-85
2024/03/02 10:12:11;;;;;;;47.65;35.53;;;;;;;;;;10061587;28;20063;-90
2024/03/02 10:17:15;;;;;;;22.67;19.60;;;;;;;;;;10058692;28;20068;-78
2024/03/02 10:22:10;;;;;;;29.25;24.65;;;;;;;;;;10062763;28;20127;-89
2024/03/02 10:27:09;;;;;;;31.20;25.52;;;;;;;;;;10056079;28;20163;-82
2024/03/02 10:32:06;;;;;;;37.63;28.92;;;;;;;;;;10063032;28;20053;-84
2024/03/02 10:37:01;;;;;;;33.38;28.15;;;;;;;;;;10052089;28;20175;-80
2024/03/02 10:41:59;;;;;;;41.13;33.28;;;;;;;;;;10053435;28;20417;-81
2024/03/02 10:46:53;;;;;;;38.55;32.08;;;;;;;;;;10063664;28;20049;-81
2024/03/02 10:51:48;;;;;;;35.70;31.85;;;;;;;;;;10055170;28;20060;-80
2024/03/02 10:56:45;;;;;;;32.63;28.67;;;;;;;;;;10060778;28;20144;-79
2024/03/02 11:01:39;;;;;;;32.00;28.50;;;;;;;;;;10053243;28;20051;-80
2024/03/02 11:06:37;;;;;;;38.67;33.90;;;;;;;;;;10058972;28;20111;-80
2024/03/02 11:11:34;;;;;;;;;;;;;;;;;;10065686;28;20474;-81
2024/03/02 11:16:41;;;;;;;29.83;26.70;;;;;;;;;;10054738;28;19921;-89
2024/03/02 11:21:35;;;;;;;31.77;28.38;;;;;;;;;;10055486;28;20107;-80
2024/03/02 11:26:29;;;;;;;24.30;21.88;;;;;;;;;;10060473;28;20061;-84
2024/03/02 11:31:23;;;;;;;19.60;17.70;;;;;;;;;;10062323;28;20111;-80
2024/03/02 11:36:16;;;;;;;11.70;10.65;;;;;;;;;;10063331;28;20060;-81
2024/03/02 11:41:11;;;;;;;8.63;7.82;;;;;;;;;;10061257;28;20444;-80
2024/03/02 11:46:08;;;;;;;12.65;8.43;;;;;;;;;;10062906;28;20769;-79
2024/03/02 11:51:05;;;;;;;10.00;8.25;;;;;;;;;;10046146;28;20061;-82
2024/03/02 11:55:59;;;;;;;6.95;6.35;;;;;;;;;;10052325;28;20082;-81
2024/03/02 12:00:56;;;;;;;7.53;6.93;;;;;;;;;;10052327;28;20057;-82
2024/03/02 12:05:50;;;;;;;7.90;7.20;;;;;;;;;;10064733;28;20053;-82
2024/03/02 12:10:59;;;;;;;8.55;6.97;;;;;;;;;;10063741;28;20049;-81
2024/03/02 12:15:56;;;;;;;6.82;6.22;;;;;;;;;;10061207;28;20108;-82
2024/03/02 12:20:52;;;;;;;6.43;5.88;;;;;;;;;;10060792;28;20140;-86
2024/03/02 12:25:48;;;;;;;6.82;5.78;;;;;;;;;;10055060;28;20144;-83
2024/03/02 12:30:42;;;;;;;8.88;6.13;;;;;;;;;;10062469;28;20513;-77
2024/03/02 12:35:36;;;;;;;7.80;7.20;;;;;;;;;;10050666;28;20833;-79
2024/03/02 12:40:31;;;;;;;7.30;6.65;;;;;;;;;;10065524;28;20697;-80
2024/03/02 12:45:25;;;;;;;8.60;7.88;;;;;;;;;;10064534;28;20055;-82
2024/03/02 12:50:19;;;;;;;7.57;6.82;;;;;;;;;;10063243;28;20057;-87
2024/03/02 12:55:14;;;;;;;8.23;7.53;;;;;;;;;;10061798;28;20049;-79
2024/03/02 13:00:11;;;;;;;10.80;9.73;;;;;;;;;;10057794;28;20063;-81
2024/03/02 13:05:10;;;;;;;11.88;9.30;;;;;;;;;;10070805;28;20065;-77
2024/03/02 13:10:08;;;;;;;11.15;10.15;;;;;;;;;;10067465;28;20053;-79
2024/03/02 13:15:05;;;;;;;10.20;9.30;;;;;;;;;;10065932;28;20061;-77
2024/03/02 13:20:00;;;;;;;10.02;9.23;;;;;;;;;;10072667;28;20459;-78
2024/03/02 13:24:54;;;;;;;10.27;9.38;;;;;;;;;;10064610;28;20162;-79
2024/03/02 13:29:49;;;;;;;10.00;9.10;;;;;;;;;;10060738;28;20054;-77
2024/03/02 13:34:43;;;;;;;8.68;7.88;;;;;;;;;;10066715;28;20053;-79
2024/03/02 13:39:42;;;;;;;9.43;8.18;;;;;;;;;;10070430;28;20451;-79
2024/03/02 13:44:36;;;;;;;8.38;7.57;;;;;;;;;;10070255;28;20060;-79
2024/03/02 13:49:35;;;;;;;6.72;6.03;;;;;;;;;;10059408;28;20128;-79
2024/03/02 13:54:31;;;;;;;7.65;6.95;;;;;;;;;;10058283;28;20049;-78
2024/03/02 13:59:26;;;;;;;8.55;6.63;;;;;;;;;;10060298;28;20136;-79
2024/03/02 14:04:20;;;;;;;7.07;6.38;;;;;;;;;;10067963;28;20502;-78
2024/03/02 14:09:14;;;;;;;7.43;6.72;;;;;;;;;;10067553;28;20528;-77
2024/03/02 14:14:08;;;;;;;10.15;9.15;;;;;;;;;;10063122;28;20064;-79
2024/03/02 14:19:01;;;;;;;7.18;6.50;;;;;;;;;;10069557;28;20057;-78
2024/03/02 14:23:55;;;;;;;9.80;8.95;;;;;;;;;;10057890;28;20115;-76
2024/03/02 14:28:50;;;;;;;6.30;5.72;;;;;;;;;;10066088;28;20410;-76
2024/03/02 14:33:46;;;;;;;5.97;5.47;;;;;;;;;;10048577;28;20067;-78
2024/03/02 14:38:40;;;;;;;7.50;6.80;;;;;;;;;;10063426;28;20111;-79
2024/03/02 14:43:37;;;;;;;6.60;5.75;;;;;;;;;;10067737;28;20054;-81
2024/03/02 14:48:31;;;;;;;11.18;10.18;;;;;;;;;;10067823;28;20390;-79
2024/03/02 14:53:25;;;;;;;10.13;9.27;;;;;;;;;;10067011;28;20053;-80
2024/03/02 14:58:19;;;;;;;6.10;5.60;;;;;;;;;;10063309;28;20128;-79
2024/03/02 15:03:13;;;;;;;6.72;6.18;;;;;;;;;;10068141;28;20061;-85
2024/03/02 15:08:06;;;;;;;9.75;8.85;;;;;;;;;;10034061;28;20516;-81
2024/03/02 15:13:00;;;;;;;8.45;7.75;;;;;;;;;;10032576;28;20077;-76
2024/03/02 15:17:54;;;;;;;7.85;7.03;;;;;;;;;;10043462;28;20129;-77
2024/03/02 15:22:48;;;;;;;7.25;6.55;;;;;;;;;;10052833;28;20053;-80
2024/03/02 15:27:43;;;;;;;7.93;7.20;;;;;;;;;;10064355;28;20128;-77
2024/03/02 15:32:38;;;;;;;7.30;6.70;;;;;;;;;;10066652;28;20128;-79
2024/03/02 15:37:33;;;;;;;15.68;10.02;;;;;;;;;;10049274;28;20506;-81
2024/03/02 15:42:27;;;;;;;10.25;8.65;;;;;;;;;;10061097;28;20068;-80
2024/03/02 15:47:20;;;;;;;7.07;6.40;;;;;;;;;;10055145;28;20079;-81
2024/03/02 15:52:18;;;;;;;6.88;6.25;;;;;;;;;;10054819;28;20482;-84
2024/03/02 15:57:11;;;;;;;11.73;9.02;;;;;;;;;;10066143;28;20460;-81
2024/03/02 16:02:05;;;;;;;14.32;12.93;;;;;;;;;;10061420;28;20057;-79
2024/03/02 16:06:59;;;;;;;13.20;11.90;;;;;;;;;;10064529;28;20041;-81
2024/03/02 16:11:53;;;;;;;20.27;15.57;;;;;;;;;;10064218;28;20069;-83
2024/03/02 16:16:46;;;;;;;29.15;18.27;;;;;;;;;;10051743;28;20417;-78
2024/03/02 16:21:40;;;;;;;9.85;9.05;;;;;;;;;;10053428;28;20041;-86
2024/03/02 16:26:34;;;;;;;10.00;9.15;;;;;;;;;;10053642;28;20143;-80
2024/03/02 16:31:28;;;;;;;9.48;8.55;;;;;;;;;;10059377;28;20053;-81
2024/03/02 16:36:22;;;;;;;8.00;7.30;;;;;;;;;;10060703;28;20058;-81
2024/03/02 16:41:17;;;;;;;26.02;22.88;;;;;;;;;;10063999;28;20057;-81
2024/03/02 16:46:11;;;;;;;12.27;9.32;;;;;;;;;;10062879;28;20073;-80
2024/03/02 16:51:06;;;;;;;12.95;11.85;;;;;;;;;;10064235;28;20057;-82
2024/03/02 16:56:03;;;;;;;11.32;10.02;;;;;;;;;;10065189;28;20301;-81
2024/03/02 17:00:59;;;;;;;36.55;24.38;;;;;;;;;;10060832;28;20053;-81
2024/03/02 17:05:54;;;;;;;16.48;14.88;;;;;;;;;;10061360;28;20426;-80
2024/03/02 17:10:50;;;;;;;38.00;33.67;;;;;;;;;;10053205;28;20050;-79
2024/03/02 17:15:44;;;;;;;27.30;24.48;;;;;;;;;;10052896;28;20038;-77
2024/03/02 17:20:39;;;;;;;29.10;26.30;;;;;;;;;;10036089;28;20053;-78
2024/03/02 17:25:33;;;;;;;23.80;21.42;;;;;;;;;;10031069;28;20088;-80
2024/03/02 17:30:27;;;;;;;32.42;28.95;;;;;;;;;;10060916;28;20075;-80
2024/03/02 17:35:21;;;;;;;15.00;13.70;;;;;;;;;;10041682;28;20081;-79
2024/03/02 17:40:15;;;;;;;14.40;13.00;;;;;;;;;;10049861;28;20057;-80
2024/03/02 17:45:10;;;;;;;16.58;15.10;;;;;;;;;;10043191;28;20089;-80
2024/03/02 17:50:04;;;;;;;31.15;27.92;;;;;;;;;;10045635;28;20041;-80
2024/03/02 17:54:58;;;;;;;24.02;21.52;;;;;;;;;;10056429;28;20080;-80
2024/03/02 17:59:52;;;;;;;29.85;26.88;;;;;;;;;;10057396;28;20050;-82
2024/03/02 18:04:46;;;;;;;33.97;30.55;;;;;;;;;;10052778;28;20459;-81
2024/03/02 18:09:40;;;;;;;40.30;36.03;;;;;;;;;;10067583;28;20053;-79
2024/03/02 18:14:34;;;;;;;41.63;37.38;;;;;;;;;;10069184;28;20068;-80
2024/03/02 18:19:31;;;;;;;42.88;38.28;;;;;;;;;;10057480;28;20077;-83
2024/03/02 18:24:27;;;;;;;32.83;29.27;;;;;;;;;;10068754;28;20061;-83
2024/03/02 18:29:22;;;;;;;31.75;28.48;;;;;;;;;;10063854;28;20049;-83
2024/03/02 18:34:16;;;;;;;38.53;34.40;;;;;;;;;;10062764;28;20072;-83
2024/03/02 18:39:10;;;;;;;32.05;28.67;;;;;;;;;;10066435;28;20076;-82
2024/03/02 18:44:05;;;;;;;44.72;40.38;;;;;;;;;;10057669;28;20394;-82
2024/03/02 18:48:59;;;;;;;40.88;37.00;;;;;;;;;;10055568;28;20112;-79
2024/03/02 18:53:54;;;;;;;30.77;27.88;;;;;;;;;;10053000;28;20085;-80
2024/03/02 18:58:48;;;;;;;26.20;23.23;;;;;;;;;;10059352;28;20560;-81
2024/03/02 19:03:41;;;;;;;26.38;21.58;;;;;;;;;;10067705;28;20049;-81
2024/03/02 19:08:35;;;;;;;19.70;15.65;;;;;;;;;;10067081;28;20101;-82
2024/03/02 19:13:28;;;;;;;26.85;23.80;;;;;;;;;;10066860;28;20136;-83
2024/03/02 19:18:23;;;;;;;20.15;16.27;;;;;;;;;;10065607;28;20514;-85
2024/03/02 19:23:16;;;;;;;17.27;15.48;;;;;;;;;;10066461;28;20513;-83
2024/03/02 19:28:21;;;;;;;14.93;13.60;;;;;;;;;;10044420;28;20421;-78
2024/03/02 19:33:15;;;;;;;16.25;13.30;;;;;;;;;;10064526;28;20803;-84
2024/03/02 19:38:09;;;;;;;14.27;12.98;;;;;;;;;;10054483;28;20140;-82
2024/03/02 19:43:04;;;;;;;16.33;14.43;;;;;;;;;;10065805;28;20054;-79
2024/03/02 19:47:58;;;;;;;17.52;15.82;;;;;;;;;;10052784;28;20081;-83
2024/03/02 19:52:52;;;;;;;183.43;128.18;;;;;;;;;;10061940;28;20050;-81
2024/03/02 19:57:47;;;;;;;31.90;25.45;;;;;;;;;;10061162;28;20069;-80
2024/03/02 20:02:41;;;;;;;11.80;9.23;;;;;;;;;;10053344;28;20099;-79
2024/03/02 20:07:36;;;;;;;14.20;5.13;;;;;;;;;;10142032;28;20041;-76
2024/03/02 20:12:30;;;;;;;15.32;13.32;;;;;;;;;;10142336;28;20466;-79
2024/03/02 20:17:25;;;;;;;9.55;8.50;;;;;;;;;;10143945;28;20546;-78
2024/03/02 20:22:20;;;;;;;10.82;7.38;;;;;;;;;;10141436;28;20071;-79
2024/03/02 20:27:14;;;;;;;9.63;6.03;;;;;;;;;;10142215;28;20102;-78
2024/03/02 20:32:08;;;;;;;4.20;3.10;;;;;;;;;;10143821;28;20056;-79
2024/03/02 20:37:03;;;;;;;3.45;3.10;;;;;;;;;;10142240;28;20518;-79
2024/03/02 20:41:57;;;;;;;5.88;4.10;;;;;;;;;;10140295;28;20143;-80
2024/03/02 20:46:52;;;;;;;6.72;5.28;;;;;;;;;;10142115;28;20048;-81
2024/03/02 20:51:46;;;;;;;22.15;11.65;;;;;;;;;;10141509;28;20059;-81
2024/03/02 20:56:41;;;;;;;101.43;54.00;;;;;;;;;;10141657;28;20057;-82
2024/03/02 21:01:35;;;;;;;184.27;96.35;;;;;;;;;;10144465;28;20579;-84
2024/03/02 21:06:28;;;;;;;88.00;41.67;;;;;;;;;;10143780;28;20084;-78
2024/03/02 21:11:22;;;;;;;95.88;54.85;;;;;;;;;;10136204;28;20496;-86
2024/03/02 21:16:16;;;;;;;65.03;44.65;;;;;;;;;;10112588;28;20073;-86
2024/03/02 21:21:11;;;;;;;15.23;10.60;;;;;;;;;;10140065;28;20505;-89
2024/03/02 21:26:05;;;;;;;17.13;11.48;;;;;;;;;;10150364;28;20389;-82
2024/03/02 21:30:59;;;;;;;10.40;6.30;;;;;;;;;;10151737;28;20066;-84
2024/03/02 21:35:53;;;;;;;15.40;12.52;;;;;;;;;;10151174;28;20071;-85
2024/03/02 21:40:48;;;;;;;16.70;13.57;;;;;;;;;;10147604;28;20063;-84
2024/03/02 21:45:42;;;;;;;11.02;8.65;;;;;;;;;;10139049;28;20470;-85
2024/03/02 21:50:36;;;;;;;16.10;10.93;;;;;;;;;;10151221;28;20507;-86
2024/03/02 21:55:30;;;;;;;7.07;5.05;;;;;;;;;;10151157;28;20098;-87
2024/03/02 22:00:25;;;;;;;3.60;2.78;;;;;;;;;;10147307;28;20123;-87
2024/03/02 22:05:19;;;;;;;9.77;5.38;;;;;;;;;;10137086;28;20049;-82
2024/03/02 22:10:13;;;;;;;3.38;2.70;;;;;;;;;;10145670;28;20243;-85
2024/03/02 22:15:08;;;;;;;25.40;20.95;;;;;;;;;;10140228;28;20482;-79
2024/03/02 22:20:02;;;;;;;9.95;6.30;;;;;;;;;;10144340;28;20078;-87
2024/03/02 22:24:57;;;;;;;13.73;5.63;;;;;;;;;;10144407;28;20059;-86
2024/03/02 22:29:51;;;;;;;4.63;3.42;;;;;;;;;;10145256;28;20095;-82
2024/03/02 22:34:45;;;;;;;8.27;2.97;;;;;;;;;;10143876;28;20052;-87
2024/03/02 22:39:40;;;;;;;14.50;8.95;;;;;;;;;;10144430;28;20055;-85
2024/03/02 22:44:35;;;;;;;17.48;11.18;;;;;;;;;;10141377;28;20068;-83
2024/03/02 22:49:29;;;;;;;22.67;14.70;;;;;;;;;;10130305;28;20075;-90
2024/03/02 22:54:23;;;;;;;19.75;11.10;;;;;;;;;;10141806;28;20082;-84
2024/03/02 22:59:17;;;;;;;8.00;6.88;;;;;;;;;;10144456;28;20052;-85
2024/03/02 23:04:10;;;;;;;8.00;6.90;;;;;;;;;;10140014;28;20044;-82
2024/03/02 23:09:05;;;;;;;11.55;8.88;;;;;;;;;;10140932;28;20060;-84
2024/03/02 23:13:59;;;;;;;11.90;8.13;;;;;;;;;;10141457;28;20416;-82
2024/03/02 23:18:53;;;;;;;18.17;12.10;;;;;;;;;;10138351;28;20181;-87
2024/03/02 23:23:52;;;;;;;15.15;6.88;;;;;;;;;;10141027;28;20084;-82
2024/03/02 23:28:46;;;;;;;5.45;4.95;;;;;;;;;;10147182;28;20044;-89
2024/03/02 23:33:40;;;;;;;9.70;5.30;;;;;;;;;;10148153;28;20122;-82
2024/03/02 23:38:34;;;;;;;21.67;16.27;;;;;;;;;;10147245;28;20118;-85
2024/03/02 23:43:29;;;;;;;6.65;5.18;;;;;;;;;;10131906;28;20079;-76
2024/03/02 23:48:27;;;;;;;24.15;9.32;;;;;;;;;;10132260;28;20385;-87
2024/03/02 23:53:21;;;;;;;4.43;3.70;;;;;;;;;;10139724;28;20045;-78
2024/03/02 23:58:15;;;;;;;4.60;3.25;;;;;;;;;;10135623;28;20411;-81
